createdAt,value
2018-03-02T00:02:25.354Z,17.53
2018-03-02T00:07:29.969Z,17.85
2018-03-02T00:12:33.052Z,17.93
2018-03-02T00:17:37.548Z,18.27
2018-03-02T00:22:41.024Z,18.27
2018-03-02T00:27:44.108Z,18.67
2018-03-02T00:32:48.550Z,18.93
2018-03-02T00:37:52.029Z,18.90
2018-03-02T00:42:56.254Z,19.63
2018-03-02T00:48:00.113Z,16.53
2018-03-02T00:53:04.551Z,16.13
2018-03-02T00:58:09.023Z,19.43
2018-03-02T01:03:13.250Z,18.20
2018-03-02T01:08:17.104Z,18.57
2018-03-02T01:13:20.208Z,19.30
2018-03-02T01:18:24.070Z,17.67
2018-03-02T01:23:28.136Z,19.63
2018-03-02T01:28:32.405Z,19.50
2018-03-02T01:33:35.498Z,19.87
2018-03-02T01:38:39.348Z,20.10
2018-03-02T01:43:43.081Z,20.20
2018-03-02T01:48:48.431Z,20.23
2018-03-02T01:53:52.292Z,21.10
2018-03-02T01:58:55.788Z,20.62
2018-03-02T02:03:59.269Z,21.57
2018-03-02T02:09:02.357Z,20.62
2018-03-02T02:14:05.459Z,19.90
2018-03-02T02:19:09.897Z,19.30
2018-03-02T02:24:12.995Z,20.67
2018-03-02T02:29:17.423Z,21.50
2018-03-02T02:34:21.639Z,20.07
2018-03-02T02:39:24.719Z,20.83
2018-03-02T02:44:29.319Z,22.20
2018-03-02T02:49:32.403Z,20.05
2018-03-02T02:54:36.265Z,22.47
2018-03-02T02:59:39.374Z,21.58
2018-03-02T03:04:42.470Z,21.53
2018-03-02T03:09:45.597Z,21.10
2018-03-02T03:14:49.474Z,20.77
2018-03-02T03:19:53.911Z,21.93
2018-03-02T03:24:58.346Z,21.20
2018-03-02T03:30:02.570Z,22.57
2018-03-02T03:35:07.061Z,20.97
2018-03-02T03:40:11.568Z,22.20
2018-03-02T03:45:15.416Z,22.67
2018-03-02T03:50:18.903Z,21.85
2018-03-02T03:55:23.205Z,20.73
2018-03-02T04:00:27.635Z,21.67
2018-03-02T04:05:31.908Z,22.47
2018-03-02T04:10:35.766Z,20.83
2018-03-02T04:15:40.199Z,23.30
2018-03-02T04:20:44.048Z,22.17
2018-03-02T04:25:48.491Z,22.20
2018-03-02T04:30:51.996Z,21.87
2018-03-02T04:35:55.073Z,23.43
2018-03-02T04:40:59.300Z,21.20
2018-03-02T04:46:02.785Z,23.37
2018-03-02T04:51:05.878Z,22.13
2018-03-02T04:56:09.585Z,23.03
2018-03-02T05:01:12.797Z,23.77
2018-03-02T05:06:16.860Z,21.47
2018-03-02T05:11:21.554Z,24.27
2018-03-02T05:16:26.231Z,22.33
2018-03-02T05:21:29.792Z,22.13
2018-03-02T05:26:33.941Z,21.37
2018-03-02T05:31:37.149Z,23.20
2018-03-02T05:36:41.083Z,21.50
2018-03-02T05:41:45.660Z,23.33
2018-03-02T05:46:49.991Z,23.42
2018-03-02T05:51:53.118Z,22.73
2018-03-02T05:56:57.637Z,22.50
2018-03-02T06:02:01.569Z,22.37
2018-03-02T06:07:11.798Z,24.23
2018-03-02T06:12:15.670Z,24.10
2018-03-02T06:17:18.848Z,23.17
2018-03-02T06:22:23.177Z,23.67
2018-03-02T06:27:27.322Z,23.90
2018-03-02T06:32:31.271Z,23.93
2018-03-02T06:37:34.761Z,23.57
2018-03-02T06:42:38.613Z,23.90
2018-03-02T06:47:41.828Z,25.03
2018-03-02T06:52:46.123Z,25.70
2018-03-02T06:57:51.073Z,26.07
2018-03-02T07:02:54.560Z,23.70
2018-03-02T07:07:58.419Z,25.17
2018-03-02T07:13:02.978Z,25.37
2018-03-02T07:18:06.080Z,23.27
2018-03-02T07:23:10.543Z,24.43
2018-03-02T07:28:14.951Z,31.55
2018-03-02T07:33:19.394Z,25.00
2018-03-02T07:38:22.529Z,24.47
2018-03-02T07:43:26.724Z,23.70
2018-03-02T07:48:30.618Z,24.95
2018-03-02T07:53:33.772Z,25.50
2018-03-02T07:58:36.878Z,24.00
2018-03-02T08:03:40.746Z,24.60
2018-03-02T08:08:44.621Z,25.43
2018-03-02T08:13:49.576Z,25.17
2018-03-02T08:18:53.463Z,24.17
2018-03-02T08:23:56.552Z,24.95
2018-03-02T08:29:00.461Z,23.92
2018-03-02T08:34:03.591Z,25.55
2018-03-02T08:39:06.668Z,26.17
2018-03-02T08:44:09.782Z,25.67
2018-03-02T08:49:13.617Z,26.37
2018-03-02T08:54:16.704Z,25.37
2018-03-02T08:59:19.816Z,26.00
2018-03-02T09:04:23.701Z,24.27
2018-03-02T09:09:27.560Z,25.57
2018-03-02T09:14:30.772Z,25.30
2018-03-02T09:19:33.868Z,25.43
2018-03-02T09:24:38.476Z,24.57
2018-03-02T09:29:43.076Z,24.43
2018-03-02T09:34:46.937Z,23.07
2018-03-02T09:39:51.532Z,22.03
2018-03-02T09:44:56.131Z,24.57
2018-03-02T09:50:00.014Z,25.13
2018-03-02T09:55:03.100Z,25.37
2018-03-02T10:00:06.969Z,26.03
2018-03-02T10:05:10.061Z,25.50
2018-03-02T10:10:13.148Z,24.30
2018-03-02T10:15:16.642Z,23.87
2018-03-02T10:20:20.131Z,22.50
2018-03-02T10:25:23.221Z,25.10
2018-03-02T10:30:27.662Z,24.70
2018-03-02T10:35:31.150Z,24.90
2018-03-02T10:40:34.632Z,25.80
2018-03-02T10:45:39.076Z,24.17
2018-03-02T10:50:43.333Z,24.83
2018-03-02T10:55:47.198Z,26.60
2018-03-02T11:00:52.331Z,24.27
2018-03-02T11:05:55.442Z,24.97
2018-03-02T11:10:59.296Z,26.43
2018-03-02T11:16:02.396Z,25.27
2018-03-02T11:21:05.488Z,24.40
2018-03-02T11:26:09.940Z,24.67
2018-03-02T11:31:13.420Z,25.07
2018-03-02T11:36:18.032Z,25.13
2018-03-02T11:41:21.549Z,25.60
2018-03-02T11:46:25.409Z,25.70
2018-03-02T11:51:30.003Z,26.03
2018-03-02T11:56:33.096Z,26.33
2018-03-02T12:01:37.528Z,24.63
2018-03-02T12:06:40.631Z,24.43
2018-03-02T12:11:43.722Z,25.07
2018-03-02T12:16:46.823Z,24.80
2018-03-02T12:21:49.905Z,23.10
2018-03-02T12:26:54.353Z,26.87
2018-03-02T12:31:57.830Z,25.17
2018-03-02T12:37:00.920Z,25.10
2018-03-02T12:42:04.013Z,25.27
2018-03-02T12:47:07.105Z,26.43
2018-03-02T12:52:11.688Z,25.27
2018-03-02T12:57:14.780Z,25.60
2018-03-02T13:02:19.232Z,27.55
2018-03-02T13:07:23.105Z,26.80
2018-03-02T13:12:26.956Z,27.50
2018-03-02T13:17:30.801Z,27.00
2018-03-02T13:22:40.971Z,25.07
2018-03-02T13:28:02.590Z,27.37
2018-03-02T13:33:23.505Z,26.10
2018-03-02T13:38:26.979Z,27.63
2018-03-02T13:43:30.829Z,25.95
2018-03-02T13:48:51.912Z,27.50
2018-03-02T13:53:55.003Z,27.07
2018-03-02T13:58:58.849Z,26.70
2018-03-02T14:09:51.016Z,25.90
2018-03-02T14:14:54.492Z,27.83
2018-03-02T14:19:57.585Z,24.90
2018-03-02T14:25:01.092Z,22.07
2018-03-02T14:30:05.189Z,27.23
2018-03-02T14:35:09.046Z,28.87
2018-03-02T14:40:12.198Z,24.63
2018-03-02T14:45:15.282Z,26.87
2018-03-02T14:50:18.913Z,27.77
2018-03-02T14:55:22.310Z,27.57
2018-03-02T15:00:25.800Z,27.73
2018-03-02T15:05:30.237Z,28.52
2018-03-02T15:10:33.342Z,28.43
2018-03-02T15:15:36.493Z,28.27
2018-03-02T15:20:41.166Z,30.40
2018-03-02T15:25:44.807Z,28.43
2018-03-02T15:30:48.693Z,27.97
2018-03-02T15:35:51.838Z,29.80
2018-03-02T15:40:55.281Z,28.33
2018-03-02T15:45:59.872Z,27.43
2018-03-02T15:51:04.469Z,26.30
2018-03-02T15:56:07.564Z,30.50
2018-03-02T16:01:11.425Z,27.13
2018-03-02T16:06:15.549Z,29.47
2018-03-02T16:11:19.383Z,30.13
2018-03-02T16:16:24.129Z,29.37
2018-03-02T16:21:27.425Z,28.70
2018-03-02T16:26:31.644Z,30.03
2018-03-02T16:31:34.724Z,30.37
2018-03-02T16:36:37.810Z,30.13
2018-03-02T16:41:42.417Z,28.73
2018-03-02T16:46:45.519Z,28.87
2018-03-02T16:51:50.655Z,29.10
2018-03-02T16:56:54.860Z,28.57
2018-03-02T17:01:57.984Z,29.80
2018-03-02T17:07:02.478Z,29.83
2018-03-02T17:12:06.907Z,29.83
2018-03-02T17:17:10.793Z,28.80
2018-03-02T17:22:13.868Z,30.97
2018-03-02T17:27:17.725Z,30.63
2018-03-02T17:32:20.801Z,30.63
2018-03-02T17:37:25.217Z,30.60
2018-03-02T17:42:29.065Z,30.07
2018-03-02T17:47:32.904Z,31.20
2018-03-02T17:52:37.149Z,31.13
2018-03-02T17:57:43.080Z,32.07
2018-03-02T18:02:47.336Z,32.55
2018-03-02T18:07:50.445Z,31.53
2018-03-02T18:12:54.872Z,32.80
2018-03-02T18:17:57.957Z,32.57
2018-03-02T18:23:02.397Z,32.10
2018-03-02T18:28:06.241Z,31.83
2018-03-02T18:33:10.845Z,34.20
2018-03-02T18:38:15.291Z,32.33
2018-03-02T18:43:19.731Z,33.87
2018-03-02T18:48:23.952Z,34.60
2018-03-02T18:53:27.040Z,33.77
2018-03-02T18:58:31.649Z,34.00
2018-03-02T19:03:35.137Z,36.37
2018-03-02T19:08:39.269Z,36.97
2018-03-02T19:13:42.766Z,36.00
2018-03-02T19:18:45.921Z,37.80
2018-03-02T19:23:49.017Z,37.37
2018-03-02T19:28:52.124Z,38.90
2018-03-02T19:33:55.207Z,38.90
2018-03-02T19:38:58.712Z,41.83
2018-03-02T19:44:02.561Z,39.20
2018-03-02T19:49:05.696Z,43.43
2018-03-02T19:54:08.786Z,42.03
2018-03-02T19:59:12.280Z,41.15
2018-03-02T20:04:16.735Z,44.57
2018-03-02T20:09:20.230Z,43.63
2018-03-02T20:14:23.740Z,44.10
2018-03-02T20:19:27.347Z,46.93
2018-03-02T20:24:31.816Z,44.87
2018-03-02T20:29:36.275Z,47.57
2018-03-02T20:34:40.128Z,49.47
2018-03-02T20:39:44.013Z,50.93
2018-03-02T20:44:48.452Z,50.80
2018-03-02T20:49:52.929Z,51.77
2018-03-02T20:54:57.149Z,52.03
2018-03-02T21:00:00.236Z,51.43
2018-03-02T21:05:04.680Z,48.50
2018-03-02T21:10:08.172Z,51.73
2018-03-02T21:15:12.035Z,51.77
2018-03-02T21:20:15.116Z,51.63
2018-03-02T21:25:18.619Z,52.83
2018-03-02T21:30:22.452Z,52.40
2018-03-02T21:35:26.389Z,48.23
2018-03-02T21:40:29.913Z,51.60
2018-03-02T21:45:45.448Z,53.93
2018-03-02T21:50:48.607Z,52.47
2018-03-02T21:55:52.554Z,53.63
2018-03-02T22:00:55.713Z,50.67
2018-03-02T22:05:59.261Z,52.47
2018-03-02T22:11:03.181Z,53.07
2018-03-02T22:16:06.667Z,53.33
2018-03-02T22:21:09.785Z,51.60
2018-03-02T22:26:12.957Z,51.88
2018-03-02T22:31:16.877Z,52.33
2018-03-02T22:36:20.033Z,53.72
2018-03-02T22:41:23.209Z,51.83
2018-03-02T22:46:26.408Z,51.37
2018-03-02T22:51:30.357Z,55.33
2018-03-02T22:56:35.039Z,57.83
2018-03-02T23:01:38.937Z,56.43
2018-03-02T23:06:42.045Z,53.33
2018-03-02T23:11:45.142Z,55.70
2018-03-02T23:16:49.822Z,56.40
2018-03-02T23:21:53.748Z,58.30
2018-03-02T23:26:57.635Z,58.77
2018-03-02T23:32:00.802Z,56.80
2018-03-02T23:37:04.030Z,59.67
2018-03-02T23:42:07.186Z,55.80
2018-03-02T23:47:11.136Z,55.53
2018-03-02T23:52:14.342Z,58.80
2018-03-02T23:57:17.550Z,57.93
